createdAt,value
2022-12-08T00:00:03.564Z,1.50
2022-12-08T00:03:00.465Z,1.50
2022-12-08T00:05:46.822Z,1.50
2022-12-08T00:08:34.259Z,1.50
2022-12-08T00:11:02.501Z,1.50
2022-12-08T00:13:30.943Z,1.50
2022-12-08T00:16:01.772Z,1.40
2022-12-08T00:18:29.842Z,1.50
2022-12-08T00:21:00.735Z,1.40
2022-12-08T00:23:28.898Z,1.40
2022-12-08T00:25:56.867Z,1.40
2022-12-08T00:28:25.833Z,1.30
2022-12-08T00:30:53.669Z,1.30
2022-12-08T00:33:22.037Z,1.30
2022-12-08T00:35:50.088Z,1.20
2022-12-08T00:38:18.678Z,1.20
2022-12-08T00:40:47.612Z,1.30
2022-12-08T00:43:16.186Z,1.20
2022-12-08T00:45:44.992Z,1.10
2022-12-08T00:48:13.016Z,1.10
2022-12-08T00:50:40.785Z,1.00
2022-12-08T00:53:08.811Z,1.00
2022-12-08T00:55:39.081Z,0.90
2022-12-08T00:58:07.067Z,0.90
2022-12-08T01:00:34.812Z,0.90
2022-12-08T01:03:02.957Z,0.90
2022-12-08T01:05:31.232Z,1.00
2022-12-08T01:08:00.164Z,1.00
2022-12-08T01:10:27.954Z,1.10
2022-12-08T01:12:56.504Z,1.10
2022-12-08T01:15:24.282Z,1.00
2022-12-08T01:17:54.898Z,1.00
2022-12-08T01:20:23.613Z,1.00
2022-12-08T01:22:52.874Z,1.00
2022-12-08T01:25:20.793Z,1.00
2022-12-08T01:27:53.352Z,1.00
2022-12-08T01:30:22.593Z,1.10
2022-12-08T01:32:51.012Z,1.00
2022-12-08T01:35:19.162Z,1.00
2022-12-08T01:37:47.645Z,1.00
2022-12-08T01:40:16.126Z,1.00
2022-12-08T01:42:44.207Z,1.00
2022-12-08T01:45:28.922Z,1.00
2022-12-08T01:48:03.176Z,1.00
2022-12-08T01:50:32.464Z,1.00
2022-12-08T01:53:16.290Z,1.00
2022-12-08T01:55:58.520Z,1.00
2022-12-08T01:58:38.669Z,1.00
2022-12-08T02:01:06.734Z,0.90
2022-12-08T02:03:43.140Z,1.00
2022-12-08T02:06:11.888Z,1.00
2022-12-08T02:08:42.234Z,0.90
2022-12-08T02:11:11.570Z,0.90
2022-12-08T02:13:43.833Z,0.90
2022-12-08T02:16:20.867Z,0.80
2022-12-08T02:19:28.982Z,0.90
2022-12-08T02:22:04.500Z,0.90
2022-12-08T02:24:41.007Z,0.90
2022-12-08T02:27:32.729Z,0.80
2022-12-08T02:30:12.958Z,0.80
2022-12-08T02:33:01.968Z,0.80
2022-12-08T02:35:57.049Z,0.80
2022-12-08T02:38:59.201Z,0.80
2022-12-08T02:41:32.032Z,0.80
2022-12-08T02:44:06.952Z,0.80
2022-12-08T02:46:47.485Z,0.80
2022-12-08T02:49:16.843Z,0.70
2022-12-08T02:51:45.130Z,0.70
2022-12-08T02:54:14.931Z,0.70
2022-12-08T02:57:00.167Z,0.70
2022-12-08T02:59:35.415Z,0.70
2022-12-08T03:02:15.009Z,0.60
2022-12-08T03:04:50.617Z,0.70
2022-12-08T03:07:31.890Z,0.70
2022-12-08T03:10:30.491Z,0.70
2022-12-08T03:13:18.970Z,0.70
2022-12-08T03:15:50.223Z,0.70
2022-12-08T03:18:23.969Z,0.60
2022-12-08T03:20:52.503Z,0.60
2022-12-08T03:23:22.688Z,0.70
2022-12-08T03:26:20.109Z,0.60
2022-12-08T03:28:48.982Z,0.60
2022-12-08T03:31:19.632Z,0.60
2022-12-08T03:33:52.088Z,0.60
2022-12-08T03:36:20.894Z,0.50
2022-12-08T03:38:52.979Z,0.50
2022-12-08T03:41:22.614Z,0.40
2022-12-08T03:43:54.169Z,0.40
2022-12-08T03:48:51.828Z,0.40
2022-12-08T03:51:19.805Z,0.30
2022-12-08T03:53:48.647Z,0.30
2022-12-08T03:56:31.733Z,0.30
2022-12-08T03:59:00.514Z,0.30
2022-12-08T04:01:29.066Z,0.20
2022-12-08T04:03:57.259Z,0.30
2022-12-08T04:06:25.853Z,0.30
2022-12-08T04:08:53.940Z,0.30
2022-12-08T04:11:22.520Z,0.30
2022-12-08T04:13:50.804Z,0.30
2022-12-08T04:16:21.689Z,0.30
2022-12-08T04:18:51.147Z,0.20
2022-12-08T04:21:19.566Z,0.20
2022-12-08T04:23:47.510Z,0.30
2022-12-08T04:26:16.749Z,0.30
2022-12-08T04:28:45.197Z,0.30
2022-12-08T04:31:13.546Z,0.30
2022-12-08T04:33:41.445Z,0.30
2022-12-08T04:36:10.198Z,0.10
2022-12-08T04:38:38.517Z,0.30
2022-12-08T04:41:07.016Z,0.30
2022-12-08T04:43:36.507Z,0.20
2022-12-08T04:46:09.004Z,0.20
2022-12-08T04:48:39.253Z,0.20
2022-12-08T04:51:07.502Z,0.10
2022-12-08T04:53:35.693Z,0.10
2022-12-08T04:56:05.096Z,0.10
2022-12-08T04:58:33.347Z,0.20
2022-12-08T05:01:01.457Z,0.20
2022-12-08T05:03:29.278Z,0.20
2022-12-08T05:06:01.227Z,0.20
2022-12-08T05:08:29.693Z,0.30
2022-12-08T05:11:06.286Z,0.20
2022-12-08T05:13:34.183Z,0.20
2022-12-08T05:16:04.250Z,0.10
2022-12-08T05:18:32.056Z,0.10
2022-12-08T05:21:00.184Z,0.10
2022-12-08T05:23:28.082Z,0.10
2022-12-08T05:25:56.390Z,0.10
2022-12-08T05:28:42.387Z,0.10
2022-12-08T05:31:15.924Z,0.10
2022-12-08T05:33:46.657Z,0.10
2022-12-08T05:36:16.106Z,0.10
2022-12-08T05:38:44.273Z,0.30
2022-12-08T05:41:18.974Z,0.00
2022-12-08T05:43:47.401Z,0.20
2022-12-08T05:46:16.328Z,0.10
2022-12-08T05:48:44.170Z,0.00
2022-12-08T05:51:21.354Z,0.00
2022-12-08T05:53:51.066Z,0.00
2022-12-08T05:56:20.503Z,0.00
2022-12-08T05:58:48.330Z,0.00
2022-12-08T06:01:25.490Z,0.00
2022-12-08T06:03:54.164Z,0.00
2022-12-08T06:06:22.576Z,0.10
2022-12-08T06:08:50.962Z,0.00
2022-12-08T06:11:28.566Z,0.00
2022-12-08T06:13:57.934Z,0.00
2022-12-08T06:16:28.445Z,0.00
2022-12-08T06:18:56.872Z,0.00
2022-12-08T06:21:25.386Z,-0.10
2022-12-08T06:23:54.690Z,-0.20
2022-12-08T06:26:23.443Z,-0.20
2022-12-08T06:28:51.531Z,-0.30
2022-12-08T06:31:25.054Z,-0.30
2022-12-08T06:33:55.171Z,-0.40
2022-12-08T06:36:26.756Z,-0.30
2022-12-08T06:38:55.385Z,-0.30
2022-12-08T06:41:23.716Z,-0.30
2022-12-08T06:43:55.333Z,-0.30
2022-12-08T06:46:24.137Z,-0.30
2022-12-08T06:48:51.988Z,-0.30
2022-12-08T06:51:22.837Z,-0.30
2022-12-08T06:53:50.796Z,-0.30
2022-12-08T06:56:20.153Z,-0.30
2022-12-08T06:58:52.404Z,-0.40
2022-12-08T07:01:21.798Z,-0.40
2022-12-08T07:03:50.538Z,-0.40
2022-12-08T07:06:23.110Z,-0.40
2022-12-08T07:08:51.600Z,-0.40
2022-12-08T07:11:22.355Z,-0.40
2022-12-08T07:13:50.620Z,-0.40
2022-12-08T07:16:18.827Z,-0.40
2022-12-08T07:18:46.701Z,-0.40
2022-12-08T07:21:15.499Z,-0.40
2022-12-08T07:23:54.049Z,-0.40
2022-12-08T07:26:26.812Z,-0.40
2022-12-08T07:28:54.793Z,-0.50
2022-12-08T07:31:25.562Z,-0.50
2022-12-08T07:33:54.815Z,-0.50
2022-12-08T07:36:23.137Z,-0.50
2022-12-08T07:38:53.253Z,-0.50
2022-12-08T07:41:25.635Z,-0.50
2022-12-08T07:43:54.314Z,-0.50
2022-12-08T07:46:26.611Z,-0.50
2022-12-08T07:48:55.963Z,-0.40
2022-12-08T07:51:25.108Z,-0.40
2022-12-08T07:53:54.460Z,-0.40
2022-12-08T07:56:24.131Z,-0.40
2022-12-08T07:58:52.477Z,-0.30
2022-12-08T08:01:30.908Z,-0.30
2022-12-08T08:04:04.458Z,-0.30
2022-12-08T08:06:35.423Z,-0.30
2022-12-08T08:09:03.437Z,-0.20
2022-12-08T08:11:31.913Z,-0.20
2022-12-08T08:13:59.722Z,-0.20
2022-12-08T08:16:28.537Z,-0.20
2022-12-08T08:18:59.595Z,-0.20
2022-12-08T08:24:16.206Z,-0.20
2022-12-08T08:26:45.567Z,-0.20
2022-12-08T08:29:13.556Z,-0.20
2022-12-08T08:31:42.187Z,-0.20
2022-12-08T08:34:10.961Z,-0.20
2022-12-08T08:36:39.860Z,-0.20
2022-12-08T08:39:33.308Z,-0.10
2022-12-08T08:42:04.273Z,-0.20
2022-12-08T08:44:32.633Z,-0.10
2022-12-08T08:47:01.153Z,-0.10
2022-12-08T08:49:28.910Z,-0.10
2022-12-08T08:51:56.882Z,0.00
2022-12-08T08:54:24.646Z,0.00
2022-12-08T08:56:53.662Z,0.00
2022-12-08T08:59:21.395Z,0.10
2022-12-08T09:01:49.566Z,0.10
2022-12-08T09:04:17.831Z,0.20
2022-12-08T09:06:46.430Z,0.30
2022-12-08T09:09:15.224Z,0.30
2022-12-08T09:11:44.052Z,0.40
2022-12-08T09:14:14.639Z,0.40
2022-12-08T09:16:44.855Z,0.50
2022-12-08T09:19:13.315Z,0.50
2022-12-08T09:21:42.764Z,0.60
2022-12-08T09:24:15.677Z,0.70
2022-12-08T09:26:44.872Z,0.70
2022-12-08T09:29:13.780Z,0.80
2022-12-08T09:31:42.317Z,0.90
2022-12-08T09:34:11.593Z,0.90
2022-12-08T09:36:40.834Z,1.00
2022-12-08T09:39:08.761Z,1.00
2022-12-08T09:41:50.213Z,1.00
2022-12-08T09:44:44.234Z,1.00
2022-12-08T09:47:32.250Z,1.00
2022-12-08T09:50:32.773Z,1.00
2022-12-08T09:53:11.955Z,1.00
2022-12-08T09:55:53.938Z,1.00
2022-12-08T09:58:56.669Z,1.10
2022-12-08T10:01:28.973Z,1.10
2022-12-08T10:03:57.561Z,1.20
2022-12-08T10:06:33.016Z,1.30
2022-12-08T10:09:39.274Z,1.40
2022-12-08T10:12:28.514Z,1.40
2022-12-08T10:15:19.561Z,1.50
2022-12-08T10:17:52.127Z,1.60
2022-12-08T10:20:26.788Z,1.60
2022-12-08T10:23:20.632Z,1.70
2022-12-08T10:26:02.466Z,1.80
2022-12-08T10:28:32.186Z,1.90
2022-12-08T10:31:00.486Z,2.10
2022-12-08T10:33:32.091Z,2.10
2022-12-08T10:36:04.738Z,2.20
2022-12-08T10:38:38.161Z,2.20
2022-12-08T10:41:12.350Z,2.30
2022-12-08T10:43:49.912Z,2.40
2022-12-08T10:46:22.502Z,2.40
2022-12-08T10:49:11.474Z,2.50
2022-12-08T10:51:42.584Z,2.50
2022-12-08T10:54:32.760Z,2.60
2022-12-08T10:57:00.857Z,2.70
2022-12-08T10:59:29.550Z,2.70
2022-12-08T11:01:57.709Z,2.70
2022-12-08T11:04:36.904Z,2.70
2022-12-08T11:07:08.926Z,2.80
2022-12-08T11:09:40.102Z,2.90
2022-12-08T11:12:15.138Z,2.90
2022-12-08T11:14:43.380Z,3.00
2022-12-08T11:17:22.618Z,3.00
2022-12-08T11:20:05.149Z,3.10
2022-12-08T11:22:39.494Z,3.10
2022-12-08T11:25:18.827Z,3.20
2022-12-08T11:27:52.860Z,3.30
2022-12-08T11:30:27.988Z,3.30
2022-12-08T11:33:14.092Z,3.30
2022-12-08T11:35:45.421Z,3.40
2022-12-08T11:38:24.559Z,3.40
2022-12-08T11:41:04.942Z,3.40
2022-12-08T11:43:39.434Z,3.50
2022-12-08T11:46:37.109Z,3.60
2022-12-08T11:49:11.831Z,3.60
2022-12-08T11:52:13.303Z,3.70
2022-12-08T11:55:24.757Z,3.70
2022-12-08T11:57:57.775Z,3.80
2022-12-08T12:00:26.449Z,3.90
2022-12-08T12:03:08.836Z,3.90
2022-12-08T12:06:23.903Z,3.90
2022-12-08T12:09:21.724Z,4.00
2022-12-08T12:12:14.593Z,4.10
2022-12-08T12:14:48.167Z,4.20
2022-12-08T12:17:41.757Z,4.20
2022-12-08T12:20:17.391Z,4.30
2022-12-08T12:22:52.009Z,4.30
2022-12-08T12:25:25.805Z,4.40
2022-12-08T12:27:59.536Z,4.40
2022-12-08T12:30:31.641Z,4.50
2022-12-08T12:33:02.558Z,4.50
2022-12-08T12:35:36.860Z,4.60
2022-12-08T12:38:46.052Z,4.60
2022-12-08T12:41:16.353Z,4.70
2022-12-08T12:44:09.362Z,4.70
2022-12-08T12:46:39.092Z,4.70
2022-12-08T12:49:38.958Z,4.70
2022-12-08T12:52:15.858Z,4.80
2022-12-08T12:55:04.970Z,4.80
2022-12-08T12:57:40.539Z,4.80
2022-12-08T13:00:19.893Z,4.70
2022-12-08T13:02:50.326Z,4.90
2022-12-08T13:05:24.761Z,4.90
2022-12-08T13:08:07.101Z,5.00
2022-12-08T13:10:38.054Z,5.00
2022-12-08T13:13:18.495Z,5.00
2022-12-08T13:15:46.595Z,5.00
2022-12-08T13:18:27.441Z,5.00
2022-12-08T13:21:16.067Z,5.10
2022-12-08T13:24:11.216Z,5.10
2022-12-08T13:26:47.342Z,5.10
2022-12-08T13:29:20.163Z,5.20
2022-12-08T13:31:54.659Z,5.20
2022-12-08T13:34:34.764Z,5.20
2022-12-08T13:37:18.976Z,5.20
2022-12-08T13:40:04.604Z,5.30
2022-12-08T13:43:20.760Z,5.30
2022-12-08T13:46:52.831Z,5.20
2022-12-08T13:50:31.294Z,5.20
2022-12-08T13:53:41.724Z,5.20
2022-12-08T13:55:26.814Z,5.20
2022-12-08T13:57:38.037Z,5.20
2022-12-08T14:00:15.262Z,5.20
2022-12-08T14:02:48.790Z,5.10
2022-12-08T14:05:34.865Z,5.20
2022-12-08T14:08:58.810Z,5.20
2022-12-08T14:11:36.317Z,5.20
2022-12-08T14:14:09.166Z,5.20
2022-12-08T14:16:44.501Z,5.20
2022-12-08T14:19:23.919Z,5.20
2022-12-08T14:22:14.461Z,5.20
2022-12-08T14:24:46.584Z,5.20
2022-12-08T14:27:18.835Z,5.20
2022-12-08T14:29:50.932Z,5.20
2022-12-08T14:32:23.920Z,5.20
2022-12-08T14:35:27.680Z,5.20
2022-12-08T14:38:00.246Z,5.20
2022-12-08T14:40:47.861Z,5.10
2022-12-08T14:44:17.666Z,5.10
2022-12-08T14:47:11.463Z,5.10
2022-12-08T14:49:59.753Z,5.10
2022-12-08T14:52:55.988Z,5.00
2022-12-08T14:55:35.046Z,5.00
2022-12-08T14:58:04.485Z,5.10
2022-12-08T15:00:33.470Z,5.20
2022-12-08T15:03:07.738Z,5.00
2022-12-08T15:05:36.663Z,4.90
2022-12-08T15:08:06.917Z,4.90
2022-12-08T15:10:39.926Z,4.90
2022-12-08T15:13:22.085Z,4.90
2022-12-08T15:15:57.956Z,4.80
2022-12-08T15:18:40.940Z,4.80
2022-12-08T15:21:12.897Z,4.70
2022-12-08T15:23:45.162Z,4.70
2022-12-08T15:26:21.786Z,4.70
2022-12-08T15:28:50.082Z,4.70
2022-12-08T15:31:18.859Z,4.70
2022-12-08T15:33:50.611Z,4.60
2022-12-08T15:36:19.124Z,4.60
2022-12-08T15:38:46.814Z,4.50
2022-12-08T15:41:15.549Z,4.40
2022-12-08T15:43:43.418Z,4.30
2022-12-08T15:46:14.839Z,4.30
2022-12-08T15:48:43.182Z,4.10
2022-12-08T15:51:11.242Z,4.10
2022-12-08T15:53:39.546Z,4.00
2022-12-08T15:58:59.650Z,3.80
2022-12-08T16:01:28.330Z,3.70
2022-12-08T16:09:41.149Z,3.60
2022-12-08T16:13:40.504Z,3.50
2022-12-08T16:18:24.033Z,3.40
2022-12-08T16:21:13.917Z,3.30
2022-12-08T16:23:44.495Z,3.30
2022-12-08T16:27:28.392Z,3.30
2022-12-08T16:29:17.790Z,3.20
2022-12-08T16:31:46.180Z,3.10
2022-12-08T16:34:15.234Z,3.10
2022-12-08T16:36:43.537Z,3.10
2022-12-08T16:39:13.889Z,3.00
2022-12-08T16:42:00.466Z,3.00
2022-12-08T16:44:29.187Z,2.90
2022-12-08T16:46:56.981Z,2.90
2022-12-08T16:49:25.963Z,2.80
2022-12-08T16:51:53.946Z,2.80
2022-12-08T16:54:21.999Z,2.70
2022-12-08T16:56:49.723Z,2.60
2022-12-08T16:59:18.656Z,2.50
2022-12-08T17:01:46.406Z,2.40
2022-12-08T17:04:31.840Z,2.40
2022-12-08T17:07:00.441Z,2.30
2022-12-08T17:09:32.114Z,2.20
2022-12-08T17:12:03.815Z,2.20
2022-12-08T17:14:36.195Z,2.20
2022-12-08T17:17:04.810Z,2.10
2022-12-08T17:19:34.416Z,2.10
2022-12-08T17:22:02.875Z,2.10
2022-12-08T17:24:32.164Z,2.00
2022-12-08T17:27:04.254Z,2.00
2022-12-08T17:29:33.897Z,1.90
2022-12-08T17:32:01.887Z,1.90
2022-12-08T17:34:30.890Z,1.80
2022-12-08T17:37:00.779Z,1.80
2022-12-08T17:39:29.324Z,1.80
2022-12-08T17:41:57.121Z,1.80
2022-12-08T17:44:25.734Z,1.70
2022-12-08T17:46:53.735Z,1.70
2022-12-08T17:49:24.733Z,1.70
2022-12-08T17:51:56.605Z,1.60
2022-12-08T17:54:26.176Z,1.60
2022-12-08T17:56:55.055Z,1.60
2022-12-08T17:59:23.112Z,1.50
2022-12-08T18:01:56.254Z,1.50
2022-12-08T18:04:27.002Z,1.50
2022-12-08T18:06:55.752Z,1.50
2022-12-08T18:09:23.823Z,1.30
2022-12-08T18:11:52.630Z,1.30
2022-12-08T18:14:23.243Z,1.30
2022-12-08T18:16:51.508Z,1.30
2022-12-08T18:19:19.823Z,1.30
2022-12-08T18:21:48.541Z,1.20
2022-12-08T18:24:22.090Z,1.20
2022-12-08T18:26:52.756Z,1.20
2022-12-08T18:29:22.788Z,1.20
2022-12-08T18:31:52.177Z,1.10
2022-12-08T18:34:20.996Z,1.10
2022-12-08T18:36:49.175Z,1.10
2022-12-08T18:39:32.096Z,1.10
2022-12-08T18:42:22.722Z,1.00
2022-12-08T18:45:06.713Z,1.00
2022-12-08T18:47:37.394Z,1.00
2022-12-08T18:50:07.766Z,1.00
2022-12-08T18:52:35.644Z,0.90
2022-12-08T18:55:08.079Z,0.90
2022-12-08T18:57:41.646Z,0.90
2022-12-08T19:00:15.459Z,0.80
2022-12-08T19:02:44.146Z,0.80
2022-12-08T19:05:16.455Z,0.80
2022-12-08T19:07:45.680Z,0.80
2022-12-08T19:10:14.063Z,0.80
2022-12-08T19:12:42.404Z,0.80
2022-12-08T19:15:11.708Z,0.80
2022-12-08T19:17:39.481Z,0.70
2022-12-08T19:20:08.333Z,0.70
2022-12-08T19:22:36.313Z,0.70
2022-12-08T19:25:04.904Z,0.70
2022-12-08T19:27:34.215Z,0.70
2022-12-08T19:30:02.289Z,0.70
2022-12-08T19:32:30.958Z,0.60
2022-12-08T19:34:59.859Z,0.60
2022-12-08T19:37:28.155Z,0.60
2022-12-08T19:40:14.650Z,0.60
2022-12-08T19:43:00.826Z,0.60
2022-12-08T19:45:29.057Z,0.50
2022-12-08T19:47:57.127Z,0.60
2022-12-08T19:50:37.475Z,0.50
2022-12-08T19:53:16.071Z,0.50
2022-12-08T19:55:45.291Z,0.50
2022-12-08T19:58:13.640Z,0.50
2022-12-08T20:00:42.455Z,0.50
2022-12-08T20:03:18.549Z,0.40
2022-12-08T20:05:49.442Z,0.40
2022-12-08T20:08:18.333Z,0.40
2022-12-08T20:10:46.830Z,0.40
2022-12-08T20:13:32.936Z,0.40
2022-12-08T20:16:03.163Z,0.40
2022-12-08T20:18:34.109Z,0.30
2022-12-08T20:21:02.223Z,0.30
2022-12-08T20:23:30.420Z,0.30
2022-12-08T20:25:59.407Z,0.30
2022-12-08T20:28:27.553Z,0.30
2022-12-08T20:30:55.748Z,0.30
2022-12-08T20:33:25.778Z,0.20
2022-12-08T20:36:05.356Z,0.20
2022-12-08T20:38:33.666Z,0.20
2022-12-08T20:41:01.794Z,0.20
2022-12-08T20:43:30.539Z,0.20
2022-12-08T20:45:58.577Z,0.20
2022-12-08T20:48:26.702Z,0.20
2022-12-08T20:50:56.993Z,0.10
2022-12-08T20:53:24.813Z,0.10
2022-12-08T20:55:53.289Z,0.10
2022-12-08T20:58:21.802Z,0.10
2022-12-08T21:00:50.501Z,0.10
2022-12-08T21:03:19.383Z,0.00
2022-12-08T21:05:52.218Z,0.00
2022-12-08T21:08:20.426Z,0.00
2022-12-08T21:10:55.361Z,0.00
2022-12-08T21:13:23.574Z,0.00
2022-12-08T21:15:52.402Z,0.00
2022-12-08T21:18:21.144Z,-0.10
2022-12-08T21:20:50.895Z,-0.10
2022-12-08T21:23:21.186Z,-0.10
2022-12-08T21:25:49.197Z,-0.10
2022-12-08T21:28:16.967Z,-0.10
2022-12-08T21:30:45.080Z,-0.10
2022-12-08T21:33:13.408Z,-0.20
2022-12-08T21:35:41.908Z,-0.20
2022-12-08T21:38:10.578Z,-0.20
2022-12-08T21:40:39.315Z,-0.20
2022-12-08T21:43:07.284Z,-0.20
2022-12-08T21:45:35.857Z,-0.20
2022-12-08T21:48:11.362Z,-0.20
2022-12-08T21:50:40.047Z,-0.30
2022-12-08T21:53:07.811Z,-0.30
2022-12-08T21:55:40.101Z,-0.30
2022-12-08T21:58:07.896Z,-0.30
2022-12-08T22:00:36.149Z,-0.30
2022-12-08T22:03:05.555Z,-0.30
2022-12-08T22:05:36.191Z,-0.30
2022-12-08T22:08:04.187Z,-0.30
2022-12-08T22:10:32.516Z,-0.30
2022-12-08T22:13:00.849Z,-0.30
2022-12-08T22:15:29.955Z,-0.30
2022-12-08T22:17:58.461Z,-0.30
2022-12-08T22:20:29.093Z,-0.30
2022-12-08T22:22:57.496Z,-0.30
2022-12-08T22:25:28.072Z,-0.30
2022-12-08T22:27:55.943Z,-0.30
2022-12-08T22:30:24.568Z,-0.30
2022-12-08T22:32:52.485Z,-0.30
2022-12-08T22:35:20.713Z,-0.30
2022-12-08T22:37:49.764Z,-0.30
2022-12-08T22:40:18.289Z,-0.30
2022-12-08T22:42:46.075Z,-0.30
2022-12-08T22:45:14.682Z,-0.30
2022-12-08T22:47:42.912Z,-0.30
2022-12-08T22:50:11.572Z,-0.30
2022-12-08T22:52:39.662Z,-0.30
2022-12-08T22:55:09.368Z,-0.40
2022-12-08T22:57:37.812Z,-0.40
2022-12-08T23:00:07.221Z,-0.40
2022-12-08T23:02:38.357Z,-0.50
2022-12-08T23:05:07.388Z,-0.50
2022-12-08T23:07:36.468Z,-0.50
2022-12-08T23:10:08.344Z,-0.50
2022-12-08T23:12:37.088Z,-0.50
2022-12-08T23:15:06.633Z,-0.50
2022-12-08T23:17:35.408Z,-0.50
2022-12-08T23:20:04.691Z,-0.60
2022-12-08T23:22:33.024Z,-0.60
2022-12-08T23:25:01.040Z,-0.60
2022-12-08T23:27:28.914Z,-0.60
2022-12-08T23:29:57.441Z,-0.60
2022-12-08T23:32:26.111Z,-0.60
2022-12-08T23:34:54.711Z,-0.60
2022-12-08T23:37:22.839Z,-0.60
2022-12-08T23:39:51.518Z,-0.60
2022-12-08T23:42:20.404Z,-0.70
2022-12-08T23:44:49.422Z,-0.70
2022-12-08T23:47:20.247Z,-0.70
2022-12-08T23:49:48.715Z,-0.70
2022-12-08T23:52:16.529Z,-0.70
2022-12-08T23:54:45.047Z,-0.60
2022-12-08T23:57:13.382Z,-0.70
2022-12-08T23:59:41.537Z,-0.70
